Flight Track Log - Related Links

Times and Time Zones

All times are in EDT time to prevent confusion due to time zone crossing. See the EJA396 flight status page for this flight to view local times or setup timezone preferences in your user account.

Time Position Orientation Groundspeed Altitude Reporting Facility
EDT Latitude Longitude Course Direction KTS MPH feet Rate Location/Type
Tue 12:47:37 PM 33.8228 -118.3672 282° West 164 189 1,800  Level Los Angeles Center
Tue 12:48:39 PM 33.8331 -118.4250 282° West 207 238 2,900 581 Climbing Los Angeles Center
Tue 12:49:41 PM 33.8253 -118.5036 263° West 216 249 3,000 677 Climbing Los Angeles Center
Tue 12:50:43 PM 33.8175 -118.5786 263° West 211 243 4,300 2,544 Climbing Los Angeles Center
Tue 12:51:46 PM 33.8089 -118.6589 263° West 246 283 8,300 3,792 Climbing Los Angeles Center
Tue 12:52:48 PM 33.8028 -118.7489 265° West 253 291 12,200 2,613 Climbing Los Angeles Center
Tue 12:53:50 PM 33.8608 -118.8431 307° West 350 403 13,700 2,613 Climbing Los Angeles Center
Tue 12:54:52 PM 33.9331 -118.9475 310° West 374 430 17,600 3,242 Climbing Los Angeles Center
Tue 12:55:54 PM 33.9989 -119.0411 310° West 369 425 20,400 2,419 Climbing Los Angeles Center
Tue 12:56:56 PM 34.0733 -119.1469 310° West 384 442 22,600 1,935 Climbing Los Angeles Center
Tue 12:57:58 PM 34.1397 -119.2419 310° West 402 463 24,400 1,872 Climbing Los Angeles Center
Tue 12:59:01 PM 34.2133 -119.3489 310° West 411 473 26,500 1,872 Climbing Los Angeles Center
Tue 01:00:03 PM 34.2903 -119.4581 310° West 422 486 28,300 1,887 Climbing Los Angeles Center
Tue 01:01:05 PM 34.3808 -119.5892 310° West 425 489 30,400 1,742 Climbing Los Angeles Center
Tue 01:02:07 PM 34.4572 -119.6989 310° West 425 489 31,900 774 Climbing Los Angeles Center
Tue 01:03:09 PM 34.5450 -119.8008 316° Northwest 451 519 32,000 48 Climbing Los Angeles Center
Tue 01:04:11 PM 34.6500 -119.8875 326° Northwest 460 529 32,000  Level Los Angeles Center
Tue 01:05:14 PM 34.7483 -119.9692 326° Northwest 434 499 32,000  Level Los Angeles Center
Tue 01:06:16 PM 34.8553 -120.0578 326° Northwest 392 451 32,000  Level Los Angeles Center
Tue 01:07:18 PM 34.9344 -120.1219 326° Northwest 371 427 32,000 -48 Level Los Angeles Center
Tue 01:08:20 PM 35.0133 -120.1903 325° Northwest 358 412 31,900 -1,258 Descending Los Angeles Center
Tue 01:09:22 PM 35.0019 -120.2786 261° West 308 354 29,400 -2,419 Descending Los Angeles Center
Tue 01:10:24 PM 34.9217 -120.2386 158° South 333 383 26,900 -2,613 Descending Los Angeles Center
Tue 01:11:26 PM 34.8394 -120.1411 136° Southeast 342 394 24,000 -1,403 Descending Los Angeles Center
Tue 01:12:28 PM 34.7719 -120.0600 135° Southeast 326 375 24,000 -290 Level Los Angeles Center
Tue 01:13:30 PM 34.7067 -119.9881 138° Southeast 321 369 23,400 -1,392 Descending Los Angeles Center
Tue 01:14:33 PM 34.6364 -119.9111 138° Southeast 338 389 21,100 -2,256 Descending Los Angeles Center
Tue 01:15:35 PM 34.5719 -119.8397 138° Southeast 321 369 18,700 -2,516 Descending Los Angeles Center
Tue 01:16:37 PM 34.5103 -119.7706 137° Southeast 307 353 15,900 -2,952 Descending Los Angeles Center
Tue 01:17:39 PM 34.4619 -119.6822 124° Southeast 316 364 12,600 -2,371 Descending Los Angeles Center
Tue 01:18:41 PM 34.4064 -119.5808 124° Southeast 304 350 11,000 -919 Descending Los Angeles Center
Tue 01:19:43 PM 34.3586 -119.4953 124° Southeast 305 351 10,700 -871 Descending Los Angeles Center
Tue 01:20:45 PM 34.3094 -119.4017 122° Southeast 316 364 9,200 -1,259 Descending Los Angeles Center
Tue 01:21:04 PM 34.2956 -119.3700 118° Southeast 306 352 9,000 -190 Descending Los Angeles Center
Tue 01:21:48 PM 34.2619 -119.3139 126° Southeast 290 334 9,000  Level Los Angeles Center
Tue 01:22:23 PM 34.2397 -119.2733 124° Southeast 278 320 9,000 -492 Level Los Angeles Center
Tue 01:22:49 PM 34.2153 -119.2461 137° Southeast 270 311 8,500 -1,500 Descending Los Angeles Center
Tue 01:23:23 PM 34.1914 -119.2214 139° Southeast 216 249 7,500 -2,095 Descending Los Angeles Center
Tue 01:23:52 PM 34.1775 -119.1856 115° Southeast 223 257 6,300 -2,327 Descending Los Angeles Center
Tue 01:24:12 PM 34.1772 -119.1661 91° East 214 246 5,600 -1,935 Descending Los Angeles Center
Tue 01:24:54 PM 34.1731 -119.1231 97° East 220 253 4,300 -2,630 Descending Los Angeles Center
Tue 01:25:25 PM 34.1994 -119.1017 34° Northeast 213 245 2,400 -2,165 Descending Los Angeles Center
Tue 01:26:31 PM 34.1997 -119.1614 270° West 142 163 800 -1,455 Descending Los Angeles Center
Tue 01:28:00 PM 34.2000 -119.2000 309° West  Level FlightAware Approximate
Tue 01:35:00 PM 34.2008 -119.2072 309° West  Level Estimated

Login

Don't have an account? Register now (free) for customized features, flight alerts, and more!